Lenore, Idaho
Current Conditions -  °F | °C
As of 5:56 PM on Friday 24 Oct 2014 (Local Time) from KLWS Reporting Station
Light Rain Light Rain  
Wind Chill: 54°   Ceiling: 7000
Heat Index: 54°   Visibility: 10mi
Dew Point: 50°   Wind: 5mph
Humidity: 86%   Direction: 50°NE
Pressure: 29.99"   Gusts: NA
Location:  46.51°N, 116.55°W
Report Text: KLWS 250056Z 05004KT 10SM -RA OVC070 12/10 A2999 RMK AO2 SLP157 P0002 T01220100
Loading
Personal Weather Stations






























Interactive Weather Map
Tropical Storm Tracking
New forecast layout! Learn more

10-Day Weather Forecast

Advertisements
Track Severe Weather on mobile